createdAt,value
2023-01-27T00:00:06.689Z,-2.06
2023-01-27T00:03:11.776Z,-1.85
2023-01-27T00:06:13.292Z,-2.18
2023-01-27T00:09:15.256Z,-2.07
2023-01-27T00:12:39.903Z,-2.04
2023-01-27T00:15:41.442Z,-2.12
2023-01-27T00:18:42.934Z,-2.15
2023-01-27T00:22:03.129Z,-1.96
2023-01-27T00:25:04.952Z,-1.90
2023-01-27T00:28:08.312Z,-2.02
2023-01-27T00:31:29.372Z,-2.13
2023-01-27T00:34:30.831Z,-2.15
2023-01-27T00:37:32.287Z,-2.11
2023-01-27T00:40:33.776Z,-1.94
2023-01-27T00:43:35.236Z,-2.12
2023-01-27T00:46:36.753Z,-2.38
2023-01-27T00:49:38.254Z,-2.17
2023-01-27T00:52:39.854Z,-2.14
2023-01-27T00:55:41.766Z,-2.27
2023-01-27T00:58:43.238Z,-2.07
2023-01-27T01:01:44.856Z,-2.13
2023-01-27T01:04:46.405Z,-2.37
2023-01-27T01:07:47.924Z,-2.23
2023-01-27T01:10:49.363Z,-2.30
2023-01-27T01:13:50.805Z,-2.53
2023-01-27T01:16:52.253Z,-2.33
2023-01-27T01:19:53.800Z,-2.30
2023-01-27T01:22:55.366Z,-2.28
2023-01-27T01:25:57.259Z,-2.49
2023-01-27T01:28:58.781Z,-2.35
2023-01-27T01:32:00.457Z,-2.31
2023-01-27T01:35:01.907Z,-2.70
2023-01-27T01:38:03.344Z,-2.43
2023-01-27T01:41:05.812Z,-2.15
2023-01-27T01:44:42.924Z,-2.41
2023-01-27T01:47:44.385Z,-2.49
2023-01-27T01:50:49.244Z,-2.19
2023-01-27T01:54:00.533Z,-2.34
2023-01-27T01:57:08.583Z,-2.40
2023-01-27T02:00:10.669Z,-2.45
2023-01-27T02:03:12.180Z,-2.18
2023-01-27T02:06:13.743Z,-2.25
2023-01-27T02:09:15.207Z,-2.23
2023-01-27T02:12:16.647Z,-1.90
2023-01-27T02:15:18.166Z,-2.02
2023-01-27T02:18:19.627Z,-1.97
2023-01-27T02:21:21.095Z,-1.92
2023-01-27T02:24:25.195Z,-1.97
2023-01-27T02:27:26.688Z,-2.09
2023-01-27T02:30:28.189Z,-1.95
2023-01-27T02:33:29.683Z,-1.77
2023-01-27T02:36:32.517Z,-2.11
2023-01-27T02:39:35.104Z,-2.15
2023-01-27T02:42:36.598Z,-2.12
2023-01-27T02:45:40.587Z,-1.95
2023-01-27T02:48:42.198Z,-1.81
2023-01-27T02:51:43.803Z,-2.10
2023-01-27T02:54:45.293Z,-2.09
2023-01-27T02:57:46.770Z,-2.30
2023-01-27T03:00:48.258Z,-2.03
2023-01-27T03:03:51.242Z,-2.24
2023-01-27T03:06:52.708Z,-2.38
2023-01-27T03:09:54.189Z,-2.50
2023-01-27T03:12:55.677Z,-2.31
2023-01-27T03:16:18.868Z,-2.08
2023-01-27T03:19:20.294Z,-2.08
2023-01-27T03:22:21.947Z,-2.27
2023-01-27T03:25:23.447Z,-2.05
2023-01-27T03:28:24.875Z,-2.07
2023-01-27T03:31:26.465Z,-1.94
2023-01-27T03:34:29.841Z,-2.08
2023-01-27T03:37:50.257Z,-2.13
2023-01-27T03:41:11.784Z,-2.02
2023-01-27T03:44:32.013Z,-2.03
2023-01-27T03:47:33.540Z,-1.85
2023-01-27T03:50:38.298Z,-1.84
2023-01-27T03:53:40.194Z,-1.90
2023-01-27T03:56:41.860Z,-1.93
2023-01-27T03:59:44.177Z,-1.73
2023-01-27T04:03:04.368Z,-1.68
2023-01-27T04:06:25.405Z,-1.78
2023-01-27T04:09:31.656Z,-1.65
2023-01-27T04:12:33.181Z,-1.80
2023-01-27T04:15:34.696Z,-1.64
2023-01-27T04:18:37.925Z,-1.68
2023-01-27T04:21:39.432Z,-1.73
2023-01-27T04:24:40.894Z,-1.69
2023-01-27T04:27:44.085Z,-1.66
2023-01-27T04:30:45.643Z,-1.95
2023-01-27T04:33:47.686Z,-2.05
2023-01-27T04:36:49.226Z,-1.68
2023-01-27T04:39:51.880Z,-1.73
2023-01-27T04:42:55.167Z,-1.50
2023-01-27T04:45:56.862Z,-1.38
2023-01-27T04:48:58.925Z,-1.44
2023-01-27T04:52:00.571Z,-1.49
2023-01-27T04:55:02.664Z,-1.39
2023-01-27T04:58:05.055Z,-1.33
2023-01-27T05:01:06.677Z,-1.26
2023-01-27T05:04:09.623Z,-1.46
2023-01-27T05:07:11.738Z,-1.32
2023-01-27T05:10:14.241Z,-1.40
2023-01-27T05:13:15.796Z,-1.79
2023-01-27T05:16:21.913Z,-2.04
2023-01-27T05:19:24.340Z,-1.91
2023-01-27T05:22:27.274Z,-1.98
2023-01-27T05:25:29.025Z,-1.93
2023-01-27T05:28:30.760Z,-1.98
2023-01-27T05:31:32.516Z,-2.11
2023-01-27T05:34:34.187Z,-1.71
2023-01-27T05:37:35.712Z,-1.85
2023-01-27T05:40:37.460Z,-1.61
2023-01-27T05:43:40.502Z,-1.77
2023-01-27T05:46:43.026Z,-1.56
2023-01-27T05:49:45.095Z,-1.61
2023-01-27T05:52:46.883Z,-1.84
2023-01-27T05:55:49.213Z,-1.67
2023-01-27T05:58:51.406Z,-1.67
2023-01-27T06:01:53.072Z,-1.83
2023-01-27T06:04:54.982Z,-1.90
2023-01-27T06:07:57.705Z,-2.12
2023-01-27T06:10:59.219Z,-2.02
2023-01-27T06:14:00.774Z,-1.72
2023-01-27T06:17:02.224Z,-1.80
2023-01-27T06:20:03.853Z,-1.91
2023-01-27T06:23:06.139Z,-1.71
2023-01-27T06:26:11.477Z,-1.92
2023-01-27T06:29:12.903Z,-1.75
2023-01-27T06:32:14.375Z,-1.43
2023-01-27T06:35:15.933Z,-1.33
2023-01-27T06:38:17.435Z,-1.60
2023-01-27T06:41:18.925Z,-1.64
2023-01-27T06:44:20.377Z,-1.66
2023-01-27T06:47:21.863Z,-1.59
2023-01-27T06:50:23.903Z,-1.56
2023-01-27T06:53:25.344Z,-1.46
2023-01-27T06:56:26.806Z,-1.42
2023-01-27T06:59:28.241Z,-1.36
2023-01-27T07:02:29.781Z,-1.46
2023-01-27T07:05:32.126Z,-1.33
2023-01-27T07:08:33.557Z,-1.45
2023-01-27T07:11:35.078Z,-1.73
2023-01-27T07:14:36.646Z,-1.75
2023-01-27T07:17:38.248Z,-1.61
2023-01-27T07:20:40.561Z,-1.62
2023-01-27T07:23:42.375Z,-1.53
2023-01-27T07:26:45.135Z,-1.03
2023-01-27T07:29:46.478Z,-1.31
2023-01-27T07:32:48.572Z,-1.01
2023-01-27T07:35:50.175Z,-1.09
2023-01-27T07:38:51.920Z,-1.14
2023-01-27T07:41:53.384Z,-1.44
2023-01-27T07:44:54.854Z,-1.38
2023-01-27T07:48:06.544Z,-1.58
2023-01-27T07:51:11.980Z,-1.76
2023-01-27T07:54:13.418Z,-1.50
2023-01-27T07:57:14.860Z,-1.40
2023-01-27T08:00:16.680Z,-1.54
2023-01-27T08:03:25.464Z,-1.39
2023-01-27T08:06:26.977Z,-1.57
2023-01-27T08:09:28.455Z,-1.35
2023-01-27T08:12:30.145Z,-1.28
2023-01-27T08:15:31.702Z,-1.35
2023-01-27T08:18:36.014Z,-1.08
2023-01-27T08:21:37.497Z,-1.23
2023-01-27T08:24:38.963Z,-1.01
2023-01-27T08:27:40.391Z,-0.80
2023-01-27T08:30:41.882Z,-0.38
2023-01-27T08:33:44.562Z,-0.30
2023-01-27T08:36:46.117Z,-0.26
2023-01-27T08:39:47.663Z,-0.30
2023-01-27T08:42:50.714Z,-0.62
2023-01-27T08:45:52.713Z,-0.79
2023-01-27T08:48:54.158Z,-0.47
2023-01-27T08:51:55.631Z,-0.46
2023-01-27T08:54:57.783Z,-0.68
2023-01-27T08:57:59.270Z,-0.84
2023-01-27T09:01:02.220Z,-0.82
2023-01-27T09:04:03.711Z,-0.64
2023-01-27T09:07:05.215Z,-0.68
2023-01-27T09:10:19.913Z,-0.75
2023-01-27T09:13:24.368Z,-0.49
2023-01-27T09:16:26.647Z,-0.12
2023-01-27T09:19:28.234Z,-0.06
2023-01-27T09:22:29.696Z,-0.16
2023-01-27T09:25:31.210Z,0.11
2023-01-27T09:28:32.666Z,0.23
2023-01-27T09:31:34.246Z,-0.14
2023-01-27T09:34:35.890Z,-0.28
2023-01-27T09:37:43.406Z,-0.01
2023-01-27T09:40:47.913Z,0.12
2023-01-27T09:44:12.713Z,0.03
2023-01-27T09:47:23.763Z,0.09
2023-01-27T09:50:48.841Z,-0.03
2023-01-27T09:53:53.274Z,0.01
2023-01-27T09:56:54.654Z,0.19
2023-01-27T10:00:26.943Z,0.09
2023-01-27T10:03:34.393Z,0.01
2023-01-27T10:07:19.418Z,-0.08
2023-01-27T10:10:42.099Z,0.13
2023-01-27T10:13:52.904Z,0.25
2023-01-27T10:17:03.322Z,0.29
2023-01-27T10:20:12.225Z,0.33
2023-01-27T10:23:24.492Z,0.46
2023-01-27T10:26:31.407Z,0.17
2023-01-27T10:29:46.521Z,0.31
2023-01-27T10:32:53.956Z,0.14
2023-01-27T10:35:59.201Z,0.37
2023-01-27T10:39:12.188Z,0.43
2023-01-27T10:42:24.246Z,0.21
2023-01-27T10:45:35.866Z,0.16
2023-01-27T10:48:43.445Z,0.17
2023-01-27T10:51:49.640Z,0.63
2023-01-27T10:54:55.757Z,0.56
2023-01-27T10:58:12.005Z,0.75
2023-01-27T11:01:22.652Z,0.53
2023-01-27T11:04:44.043Z,0.30
2023-01-27T11:07:52.530Z,0.40
2023-01-27T11:11:13.872Z,0.53
2023-01-27T11:14:32.224Z,0.68
2023-01-27T11:17:46.404Z,0.44
2023-01-27T11:20:54.410Z,0.60
2023-01-27T11:23:57.155Z,0.35
2023-01-27T11:27:16.579Z,0.69
2023-01-27T11:30:28.064Z,0.59
2023-01-27T11:33:52.169Z,0.93
2023-01-27T11:36:53.733Z,1.12
2023-01-27T11:39:55.194Z,1.15
2023-01-27T11:42:58.175Z,1.16
2023-01-27T11:46:04.057Z,1.32
2023-01-27T11:49:06.812Z,1.38
2023-01-27T11:52:11.213Z,1.39
2023-01-27T11:55:25.102Z,1.30
2023-01-27T11:58:31.362Z,1.31
2023-01-27T12:01:48.435Z,1.68
2023-01-27T12:05:00.110Z,1.00
2023-01-27T12:08:02.703Z,1.05
2023-01-27T12:11:36.711Z,1.15
2023-01-27T12:14:38.252Z,0.95
2023-01-27T12:17:54.530Z,1.06
2023-01-27T12:21:00.320Z,1.11
2023-01-27T12:24:01.856Z,0.94
2023-01-27T12:27:03.566Z,1.21
2023-01-27T12:30:06.942Z,1.22
2023-01-27T12:33:13.195Z,1.12
2023-01-27T12:36:18.479Z,1.51
2023-01-27T12:39:45.562Z,1.60
2023-01-27T12:43:17.037Z,1.44
2023-01-27T12:46:28.265Z,1.54
2023-01-27T12:49:33.089Z,1.59
2023-01-27T12:52:34.587Z,1.57
2023-01-27T12:55:41.279Z,1.58
2023-01-27T12:58:54.908Z,1.82
2023-01-27T13:02:21.676Z,2.11
2023-01-27T13:05:23.120Z,2.40
2023-01-27T13:08:25.205Z,2.33
2023-01-27T13:11:37.708Z,2.15
2023-01-27T13:14:40.688Z,2.11
2023-01-27T13:17:48.355Z,1.91
2023-01-27T13:21:11.580Z,1.52
2023-01-27T13:24:15.467Z,1.39
2023-01-27T13:27:18.294Z,1.16
2023-01-27T13:30:25.369Z,0.73
2023-01-27T13:33:51.053Z,0.68
2023-01-27T13:37:02.474Z,0.63
2023-01-27T13:40:20.232Z,0.54
2023-01-27T13:43:35.217Z,0.78
2023-01-27T13:46:37.630Z,0.84
2023-01-27T13:49:57.383Z,1.04
2023-01-27T13:52:59.191Z,0.64
2023-01-27T13:56:36.034Z,0.95
2023-01-27T13:59:55.947Z,1.10
2023-01-27T14:03:15.559Z,1.11
2023-01-27T14:06:43.188Z,1.11
2023-01-27T14:10:05.683Z,1.24
2023-01-27T14:13:32.556Z,1.25
2023-01-27T14:16:40.396Z,1.24
2023-01-27T14:19:48.299Z,1.22
2023-01-27T14:23:15.829Z,1.14
2023-01-27T14:26:23.955Z,1.40
2023-01-27T14:29:49.580Z,1.46
2023-01-27T14:33:15.670Z,1.60
2023-01-27T14:36:31.445Z,0.88
2023-01-27T14:39:53.185Z,1.26
2023-01-27T14:43:10.267Z,1.27
2023-01-27T14:46:17.851Z,1.08
2023-01-27T14:49:40.503Z,1.51
2023-01-27T14:52:56.058Z,1.38
2023-01-27T14:56:03.494Z,1.31
2023-01-27T14:59:07.876Z,1.15
2023-01-27T15:02:38.516Z,1.36
2023-01-27T15:06:01.923Z,1.30
2023-01-27T15:09:33.283Z,1.05
2023-01-27T15:12:47.981Z,1.00
2023-01-27T15:16:27.288Z,1.11
2023-01-27T15:19:40.744Z,0.89
2023-01-27T15:23:26.457Z,0.96
2023-01-27T15:26:27.997Z,0.81
2023-01-27T15:29:30.698Z,0.80
2023-01-27T15:32:39.061Z,0.98
2023-01-27T15:35:41.596Z,1.06
2023-01-27T15:38:43.106Z,1.13
2023-01-27T15:42:25.851Z,1.03
2023-01-27T15:45:34.895Z,1.00
2023-01-27T15:48:36.479Z,0.96
2023-01-27T15:51:38.024Z,0.58
2023-01-27T15:54:40.318Z,0.73
2023-01-27T15:57:41.777Z,0.84
2023-01-27T16:00:49.414Z,0.78
2023-01-27T16:03:52.690Z,0.64
2023-01-27T16:07:01.917Z,0.46
2023-01-27T16:10:04.290Z,0.47
2023-01-27T16:13:14.799Z,0.61
2023-01-27T16:16:19.225Z,0.65
2023-01-27T16:19:27.043Z,0.62
2023-01-27T16:22:28.737Z,0.65
2023-01-27T16:25:39.586Z,0.88
2023-01-27T16:28:43.405Z,0.84
2023-01-27T16:31:44.909Z,0.96
2023-01-27T16:34:49.315Z,0.90
2023-01-27T16:38:16.949Z,0.85
2023-01-27T16:41:28.460Z,0.78
2023-01-27T16:44:41.462Z,0.75
2023-01-27T16:47:44.219Z,0.91
2023-01-27T16:50:45.551Z,0.93
2023-01-27T16:53:48.509Z,0.91
2023-01-27T16:56:51.398Z,0.87
2023-01-27T16:59:52.871Z,0.74
2023-01-27T17:02:54.784Z,0.69
2023-01-27T17:05:56.305Z,0.67
2023-01-27T17:09:02.367Z,0.48
2023-01-27T17:12:03.985Z,0.64
2023-01-27T17:15:35.476Z,0.26
2023-01-27T17:18:51.799Z,0.38
2023-01-27T17:21:55.263Z,0.47
2023-01-27T17:24:56.697Z,0.59
2023-01-27T17:27:58.726Z,0.60
2023-01-27T17:31:04.132Z,0.58
2023-01-27T17:34:07.213Z,0.47
2023-01-27T17:37:14.323Z,0.32
2023-01-27T17:40:20.883Z,0.65
2023-01-27T17:43:23.301Z,0.71
2023-01-27T17:46:24.948Z,0.59
2023-01-27T17:49:27.835Z,0.69
2023-01-27T17:52:31.060Z,0.87
2023-01-27T17:55:32.586Z,0.87
2023-01-27T17:58:34.096Z,0.86
2023-01-27T18:01:35.622Z,0.68
2023-01-27T18:04:39.396Z,0.63
2023-01-27T18:07:40.877Z,0.33
2023-01-27T18:10:45.758Z,0.42
2023-01-27T18:13:54.185Z,0.36
2023-01-27T18:17:05.954Z,0.59
2023-01-27T18:20:28.916Z,0.73
2023-01-27T18:23:34.626Z,0.74
2023-01-27T18:26:39.715Z,0.31
2023-01-27T18:29:41.300Z,0.48
2023-01-27T18:32:44.972Z,0.56
2023-01-27T18:35:56.527Z,0.63
2023-01-27T18:38:58.067Z,0.37
2023-01-27T18:42:00.201Z,0.50
2023-01-27T18:45:01.656Z,0.34
2023-01-27T18:48:03.850Z,0.38
2023-01-27T18:51:09.309Z,0.19
2023-01-27T18:54:11.879Z,0.36
2023-01-27T18:57:13.345Z,0.34
2023-01-27T19:00:18.942Z,0.42
2023-01-27T19:03:25.052Z,0.71
2023-01-27T19:06:26.632Z,0.52
2023-01-27T19:09:28.073Z,0.35
2023-01-27T19:12:29.539Z,0.24
2023-01-27T19:15:35.036Z,0.17
2023-01-27T19:18:37.636Z,0.26
2023-01-27T19:21:39.295Z,0.29
2023-01-27T19:24:40.873Z,0.31
2023-01-27T19:27:47.060Z,0.30
2023-01-27T19:30:48.563Z,0.69
2023-01-27T19:33:50.231Z,0.68
2023-01-27T19:36:51.783Z,0.86
2023-01-27T19:39:53.276Z,0.73
2023-01-27T19:42:54.816Z,0.82
2023-01-27T19:45:56.347Z,0.40
2023-01-27T19:48:57.979Z,0.56
2023-01-27T19:51:59.819Z,0.42
2023-01-27T19:55:01.776Z,0.57
2023-01-27T19:58:03.338Z,0.66
2023-01-27T20:01:04.901Z,0.58
2023-01-27T20:04:06.488Z,0.71
2023-01-27T20:07:11.899Z,0.68
2023-01-27T20:10:27.255Z,0.37
2023-01-27T20:13:28.789Z,0.63
2023-01-27T20:16:30.397Z,0.71
2023-01-27T20:19:31.849Z,0.65
2023-01-27T20:22:34.562Z,0.72
2023-01-27T20:25:35.875Z,0.57
2023-01-27T20:28:37.320Z,0.86
2023-01-27T20:31:39.162Z,0.48
2023-01-27T20:34:40.845Z,0.80
2023-01-27T20:37:42.696Z,0.78
2023-01-27T20:40:44.176Z,0.78
2023-01-27T20:43:45.743Z,0.75
2023-01-27T20:46:47.230Z,0.91
2023-01-27T20:49:48.750Z,0.87
2023-01-27T20:52:50.325Z,0.95
2023-01-27T20:55:51.851Z,0.97
2023-01-27T20:58:54.283Z,0.88
2023-01-27T21:01:55.852Z,0.86
2023-01-27T21:04:57.418Z,0.63
2023-01-27T21:07:58.928Z,0.79
2023-01-27T21:11:01.356Z,0.89
2023-01-27T21:14:02.839Z,1.07
2023-01-27T21:17:05.102Z,0.90
2023-01-27T21:20:07.213Z,0.97
2023-01-27T21:23:08.927Z,0.84
2023-01-27T21:26:10.439Z,0.98
2023-01-27T21:29:12.084Z,1.00
2023-01-27T21:32:13.570Z,0.89
2023-01-27T21:35:15.332Z,0.68
2023-01-27T21:38:18.357Z,0.69
2023-01-27T21:41:39.069Z,0.67
2023-01-27T21:44:59.019Z,0.38
2023-01-27T21:48:00.510Z,0.48
2023-01-27T21:51:01.992Z,0.59
2023-01-27T21:54:03.564Z,0.48
2023-01-27T21:57:05.006Z,0.74
2023-01-27T22:00:08.586Z,0.55
2023-01-27T22:03:10.062Z,0.78
2023-01-27T22:06:11.504Z,0.93
2023-01-27T22:09:12.986Z,0.74
2023-01-27T22:12:15.324Z,0.85
2023-01-27T22:15:18.195Z,0.75
2023-01-27T22:18:19.707Z,0.94
2023-01-27T22:21:21.150Z,0.95
2023-01-27T22:24:22.620Z,1.01
2023-01-27T22:27:24.063Z,0.90
2023-01-27T22:30:25.578Z,0.87
2023-01-27T22:33:27.095Z,0.93
2023-01-27T22:36:28.606Z,0.87
2023-01-27T22:39:30.112Z,0.67
2023-01-27T22:42:31.582Z,0.84
2023-01-27T22:45:33.094Z,0.81
2023-01-27T22:48:34.649Z,0.84
2023-01-27T22:51:36.237Z,0.90
2023-01-27T22:54:37.809Z,0.92
2023-01-27T22:57:39.315Z,0.83
2023-01-27T23:00:40.794Z,0.81
2023-01-27T23:03:42.238Z,0.80
2023-01-27T23:06:43.700Z,1.02
2023-01-27T23:09:45.140Z,1.04
2023-01-27T23:12:46.643Z,1.02
2023-01-27T23:15:48.085Z,0.85
2023-01-27T23:18:51.889Z,0.75
2023-01-27T23:21:53.340Z,0.75
2023-01-27T23:24:54.834Z,0.78
2023-01-27T23:27:56.296Z,0.77
2023-01-27T23:30:57.884Z,0.98
2023-01-27T23:33:59.406Z,0.66
2023-01-27T23:37:00.869Z,0.63
2023-01-27T23:40:02.350Z,0.82
2023-01-27T23:43:04.927Z,0.97
2023-01-27T23:46:06.435Z,0.69
2023-01-27T23:49:10.103Z,0.85
2023-01-27T23:52:11.569Z,0.91
2023-01-27T23:55:13.423Z,0.72
2023-01-27T23:58:15.131Z,0.79
